Terminal Aerodrome Forecast
Issued by NWS

Home | Current Version | Previous Version | Text Only | Print | Product List | Glossary On
Versions: 1 2 3 4 5 6 7 8 9 10 11 12 13 14 15 16 17 18 19 20 21 22 23 24 25 26 27 28 29 30 31 32 33 34 35 36
000
FTUS44 KBMX 261135
TAFASN
TAF
KASN 261135Z 2612/2712 12010KT 4SM RA SCT025 OVC040
      TEMPO 2613/2615 2SM +RA
     FM262000 27012G20KT 6SM SHRA OVC025
     FM270200 32015KT P6SM OVC050
     FM270900 30005KT P6SM BKN015
      AMD NOT SKED=

USA.gov is the U.S. government's official web portal to all federal, state and local government web resources and services.